Time;durP1;ratioP1;P1;durP2;ratioP2;P2;SDS_P1;SDS_P2;PMS_P1;PMS_P2;Temp;Humidity;BMP_temperature;BMP_pressure;BME280_temperature;BME280_humidity;BME280_pressure;Samples;Min_cycle;Max_cycle;Signal;HPM_P1;HPM_P2
2022/03/16 00:00:17;;;;;;;11.40;10.25;;;;;;;2.70;83.82;101794.06;5029704;27;20032;-71
2022/03/16 00:02:43;;;;;;;11.30;10.20;;;;;;;2.66;83.92;101788.09;5028184;27;20808;-71
2022/03/16 00:05:08;;;;;;;11.60;10.23;;;;;;;2.55;84.18;101782.44;5010672;27;20043;-70
2022/03/16 00:07:34;;;;;;;12.98;10.50;;;;;;;2.55;84.38;101795.50;5030646;27;20001;-72
2022/03/16 00:09:59;;;;;;;12.18;10.82;;;;;;;2.53;84.41;101794.72;5033319;27;20044;-70
2022/03/16 00:12:25;;;;;;;10.93;9.90;;;;;;;2.54;84.36;101796.44;5030536;27;20342;-70
2022/03/16 00:14:50;;;;;;;11.38;10.18;;;;;;;2.48;84.55;101791.41;5031850;27;20046;-70
2022/03/16 00:17:16;;;;;;;11.73;10.52;;;;;;;2.48;84.80;101801.88;5029621;27;20726;-71
2022/03/16 00:19:43;;;;;;;14.30;10.70;;;;;;;2.48;84.99;101794.91;4993742;27;20017;-70
2022/03/16 00:22:09;;;;;;;14.65;12.30;;;;;;;2.47;85.59;101800.16;5009474;27;20063;-71
2022/03/16 00:24:34;;;;;;;14.48;12.52;;;;;;;2.49;85.21;101793.13;5032817;27;20021;-70
2022/03/16 00:27:00;;;;;;;15.85;12.93;;;;;;;2.44;84.94;101789.81;5029246;27;20512;-70
2022/03/16 00:29:25;;;;;;;12.63;11.07;;;;;;;2.40;84.43;101795.19;5010003;27;20847;-71
2022/03/16 00:31:50;;;;;;;14.63;12.43;;;;;;;2.43;84.60;101796.00;5011579;27;20021;-70
2022/03/16 00:34:16;;;;;;;15.10;12.95;;;;;;;2.36;84.92;101801.41;5009600;27;20025;-71
2022/03/16 00:36:41;;;;;;;12.73;11.43;;;;;;;2.37;85.76;101791.84;5032710;27;20013;-70
2022/03/16 00:39:06;;;;;;;12.20;10.98;;;;;;;2.32;84.98;101802.44;5025586;27;20036;-70
2022/03/16 00:41:33;;;;;;;13.30;11.57;;;;;;;2.28;84.72;101793.00;5032355;27;20919;-71
2022/03/16 00:43:59;;;;;;;13.02;11.15;;;;;;;2.30;84.88;101795.56;5047433;27;20001;-72
2022/03/16 00:46:24;;;;;;;12.02;10.93;;;;;;;2.27;84.30;101798.31;5048035;27;20061;-71
2022/03/16 00:48:49;;;;;;;11.18;10.07;;;;;;;2.24;84.41;101796.66;5050007;27;20088;-72
2022/03/16 00:51:15;;;;;;;10.55;9.43;;;;;;;2.20;83.83;101798.53;5049342;27;20000;-70
2022/03/16 00:53:41;;;;;;;10.23;9.32;;;;;;;2.26;84.14;101801.81;5049251;27;20840;-71
2022/03/16 00:56:07;;;;;;;10.93;9.90;;;;;;;2.16;83.92;101799.56;5013832;27;20028;-72
2022/03/16 00:58:32;;;;;;;11.05;9.95;;;;;;;2.10;84.12;101791.09;5029061;27;20029;-70
2022/03/16 01:00:58;;;;;;;10.43;9.48;;;;;;;2.06;84.49;101786.00;5048236;27;20926;-70
2022/03/16 01:03:24;;;;;;;10.23;9.23;;;;;;;2.10;84.79;101791.09;5049898;27;20048;-70
2022/03/16 01:05:49;;;;;;;10.55;9.45;;;;;;;2.09;84.96;101790.25;5039704;27;20012;-70
2022/03/16 01:08:15;;;;;;;10.85;9.85;;;;;;;2.02;84.92;101784.41;5003692;27;20016;-70
2022/03/16 01:10:40;;;;;;;10.23;9.32;;;;;;;2.15;84.94;101783.94;5022876;27;20072;-71
2022/03/16 01:13:06;;;;;;;10.50;9.50;;;;;;;2.10;84.65;101791.97;5007471;27;20029;-71
2022/03/16 01:15:31;;;;;;;13.55;10.32;;;;;;;2.04;85.30;101792.16;5031594;27;20907;-70
2022/03/16 01:17:57;;;;;;;11.05;9.45;;;;;;;2.08;85.54;101779.88;5028494;27;20016;-71
2022/03/16 01:20:22;;;;;;;11.45;10.25;;;;;;;2.04;85.42;101777.34;5025129;27;20863;-70
2022/03/16 01:22:47;;;;;;;14.07;10.85;;;;;;;2.03;85.03;101775.66;5010142;28;20124;-70
2022/03/16 01:25:13;;;;;;;14.88;11.43;;;;;;;2.04;85.12;101782.56;5027780;27;20025;-72
2022/03/16 01:27:38;;;;;;;10.98;9.88;;;;;;;2.07;85.19;101776.38;5008944;28;20200;-71
2022/03/16 01:30:04;;;;;;;11.38;10.00;;;;;;;2.10;85.22;101783.25;5030822;27;20041;-70
2022/03/16 01:32:29;;;;;;;10.32;9.38;;;;;;;2.07;85.02;101781.59;5027617;28;20752;-70
2022/03/16 01:34:55;;;;;;;15.10;11.13;;;;;;;2.02;85.00;101773.13;5010986;27;20041;-70
2022/03/16 01:37:20;;;;;;;14.65;11.18;;;;;;;2.02;85.41;101773.94;5021461;28;20148;-71
2022/03/16 01:39:45;;;;;;;13.68;10.85;;;;;;;1.96;85.10;101776.78;5034458;27;20065;-73
2022/03/16 01:42:12;;;;;;;12.00;10.48;;;;;;;1.93;85.27;101779.50;5054174;27;20092;-72
2022/03/16 01:44:51;;;;;;;12.50;11.20;;;;;;;1.88;85.02;101771.00;5026876;28;20021;-72
2022/03/16 01:47:17;;;;;;;10.02;9.13;;;;;;;1.84;85.28;101758.97;5026074;27;20843;-70
2022/03/16 01:49:43;;;;;;;10.10;9.20;;;;;;;1.89;85.32;101767.50;5010593;28;20022;-70
2022/03/16 01:52:09;;;;;;;10.07;9.18;;;;;;;1.94;85.78;101767.31;5022494;27;20020;-71
2022/03/16 01:54:34;;;;;;;10.57;9.57;;;;;;;1.99;85.23;101767.97;5049394;27;20139;-71
2022/03/16 01:57:00;;;;;;;9.73;8.82;;;;;;;2.16;84.61;101770.84;5039646;27;20025;-70
2022/03/16 01:59:25;;;;;;;9.70;8.77;;;;;;;2.09;84.72;101763.28;5027824;28;20549;-70
2022/03/16 02:01:51;;;;;;;10.20;9.30;;;;;;;2.03;85.04;101765.22;5008401;28;20013;-70
2022/03/16 02:04:16;;;;;;;10.88;9.13;;;;;;;2.09;85.24;101769.38;5009946;28;20029;-72
2022/03/16 02:06:41;;;;;;;9.68;8.77;;;;;;;2.16;84.62;101751.72;5028032;27;20017;-70
2022/03/16 02:09:07;;;;;;;9.88;8.88;;;;;;;2.30;84.76;101753.78;5026815;27;20850;-71
2022/03/16 02:11:32;;;;;;;10.07;9.07;;;;;;;2.17;85.08;101750.78;5030754;27;20017;-70
2022/03/16 02:13:57;;;;;;;10.20;9.20;;;;;;;2.06;84.82;101759.88;5030798;27;21048;-71
2022/03/16 02:16:23;;;;;;;9.52;8.63;;;;;;;1.99;85.38;101753.19;5014029;27;20138;-71
2022/03/16 02:18:49;;;;;;;9.38;8.57;;;;;;;2.05;85.50;101752.94;5005819;27;20043;-72
2022/03/16 02:21:14;;;;;;;10.13;8.77;;;;;;;1.99;85.28;101753.19;5032606;27;20033;-70
2022/03/16 02:23:40;;;;;;;11.43;9.25;;;;;;;2.02;85.67;101754.84;5028976;27;20019;-71
2022/03/16 02:26:06;;;;;;;10.07;9.18;;;;;;;2.04;85.26;101759.06;5030921;27;20013;-71
2022/03/16 02:28:31;;;;;;;10.43;9.43;;;;;;;1.98;85.34;101751.47;5013217;27;20868;-71
2022/03/16 02:30:59;;;;;;;10.80;9.65;;;;;;;2.05;85.08;101752.94;5034378;27;20033;-71
2022/03/16 02:33:25;;;;;;;10.00;9.05;;;;;;;1.95;85.13;101746.38;5031378;27;20052;-71
2022/03/16 02:35:50;;;;;;;9.82;8.82;;;;;;;1.87;85.72;101748.41;5021870;27;20146;-71
2022/03/16 02:38:16;;;;;;;9.32;8.38;;;;;;;1.99;85.10;101757.53;5011122;27;20189;-73
2022/03/16 02:40:41;;;;;;;11.27;9.00;;;;;;;1.84;85.24;101741.53;5006328;27;20029;-70
2022/03/16 02:43:07;;;;;;;9.13;8.23;;;;;;;1.99;84.91;101742.75;5032049;27;20528;-71
2022/03/16 02:45:32;;;;;;;8.98;8.23;;;;;;;1.96;84.75;101742.88;5029880;27;20249;-70
2022/03/16 02:47:57;;;;;;;9.52;8.70;;;;;;;1.93;84.59;101745.56;5033772;27;20305;-70
2022/03/16 02:50:23;;;;;;;8.57;7.72;;;;;;;1.87;85.02;101753.63;5028085;27;20866;-70
2022/03/16 02:52:48;;;;;;;10.10;9.00;;;;;;;1.84;84.84;101751.97;5016728;27;20069;-73
2022/03/16 02:55:14;;;;;;;9.98;9.00;;;;;;;1.91;85.72;101755.22;5031169;27;20032;-70
2022/03/16 02:57:39;;;;;;;9.68;8.73;;;;;;;1.85;84.77;101755.44;5031470;27;20268;-70
2022/03/16 03:00:06;;;;;;;9.73;8.73;;;;;;;1.85;84.57;101751.06;5011701;27;20053;-74
2022/03/16 03:02:32;;;;;;;9.48;8.57;;;;;;;1.82;84.54;101747.72;5010010;27;20736;-70
2022/03/16 03:04:57;;;;;;;9.95;9.05;;;;;;;1.85;84.49;101761.50;5028204;27;20075;-70
2022/03/16 03:07:22;;;;;;;9.60;8.68;;;;;;;1.89;84.65;101754.44;5019870;27;20032;-72
2022/03/16 03:09:48;;;;;;;9.82;8.93;;;;;;;1.92;84.22;101745.63;5032436;27;20021;-71
2022/03/16 03:12:13;;;;;;;9.65;8.75;;;;;;;1.84;83.94;101744.13;5004273;27;20503;-70
2022/03/16 03:14:39;;;;;;;10.00;9.00;;;;;;;1.87;83.80;101745.78;5010803;28;21031;-70
2022/03/16 03:17:04;;;;;;;10.02;8.98;;;;;;;1.74;84.81;101747.16;4976710;28;20170;-70
2022/03/16 03:19:30;;;;;;;10.07;9.18;;;;;;;1.80;85.80;101747.75;5008670;28;20022;-71
2022/03/16 03:21:55;;;;;;;9.90;9.00;;;;;;;1.78;85.61;101740.94;5010524;28;20086;-71
2022/03/16 03:24:20;;;;;;;10.27;9.38;;;;;;;1.81;85.25;101739.03;5011902;27;20024;-70
2022/03/16 03:26:46;;;;;;;9.70;8.80;;;;;;;1.74;84.67;101734.13;4995321;28;20983;-70
2022/03/16 03:29:11;;;;;;;9.07;8.27;;;;;;;1.84;83.97;101738.09;5012716;27;20164;-71
2022/03/16 03:31:37;;;;;;;8.85;8.00;;;;;;;1.79;83.72;101732.16;5012490;27;20017;-71
2022/03/16 03:34:02;;;;;;;12.90;8.70;;;;;;;1.96;83.58;101742.00;5033290;27;20021;-72
2022/03/16 03:36:28;;;;;;;9.90;8.55;;;;;;;1.92;83.43;101735.19;5008005;28;20880;-70
2022/03/16 03:38:53;;;;;;;9.25;8.35;;;;;;;1.80;84.37;101747.75;5025926;27;20013;-70
2022/03/16 03:41:18;;;;;;;10.35;9.30;;;;;;;1.88;85.53;101757.94;4995484;28;20464;-70
2022/03/16 03:43:44;;;;;;;10.30;9.30;;;;;;;1.88;86.07;101766.63;5013595;28;20108;-70
2022/03/16 03:46:09;;;;;;;11.40;9.38;;;;;;;1.87;86.00;101753.63;4960896;28;20005;-73
2022/03/16 03:48:35;;;;;;;8.85;8.05;;;;;;;1.83;85.32;101760.72;4995116;28;20013;-70
2022/03/16 03:51:00;;;;;;;9.70;8.80;;;;;;;1.82;84.36;101761.63;4993239;28;20416;-70
2022/03/16 03:53:25;;;;;;;9.32;8.43;;;;;;;1.70;83.71;101767.28;5015853;27;20021;-70
2022/03/16 03:55:51;;;;;;;12.55;8.25;;;;;;;1.82;83.80;101765.97;5014390;27;20584;-71
2022/03/16 03:58:16;;;;;;;9.88;8.88;;;;;;;1.71;84.40;101771.59;5015821;28;20496;-71
2022/03/16 04:00:42;;;;;;;9.30;8.10;;;;;;;1.66;84.23;101773.50;4979537;28;20005;-71
2022/03/16 04:03:07;;;;;;;9.20;8.35;;;;;;;1.59;84.42;101775.47;4996831;28;20053;-70
2022/03/16 04:05:32;;;;;;;11.38;8.30;;;;;;;1.57;84.63;101776.44;5019461;27;20017;-70
2022/03/16 04:07:58;;;;;;;9.43;8.45;;;;;;;1.60;84.61;101779.78;5027920;27;20942;-70
2022/03/16 04:10:23;;;;;;;8.73;7.88;;;;;;;1.63;84.30;101781.44;5020305;27;20968;-70
2022/03/16 04:12:49;;;;;;;9.02;8.23;;;;;;;1.62;83.75;101782.34;5018571;28;20019;-70
2022/03/16 04:15:15;;;;;;;8.38;7.68;;;;;;;1.63;83.72;101782.28;4966758;28;20033;-70
2022/03/16 04:17:40;;;;;;;9.27;8.32;;;;;;;1.49;84.03;101785.38;4999550;28;20409;-70
2022/03/16 04:20:06;;;;;;;9.93;8.90;;;;;;;1.60;84.89;101784.16;5000749;28;20200;-70
2022/03/16 04:22:31;;;;;;;9.57;8.57;;;;;;;1.53;84.77;101784.34;5002112;28;20193;-71
2022/03/16 04:24:57;;;;;;;9.32;8.52;;;;;;;1.52;85.21;101784.41;4967246;28;20400;-70
2022/03/16 04:27:22;;;;;;;9.57;8.52;;;;;;;1.48;85.01;101772.38;5002135;28;20017;-70
2022/03/16 04:29:48;;;;;;;9.18;8.38;;;;;;;1.41;85.12;101770.88;5004105;27;20036;-70
2022/03/16 04:32:13;;;;;;;9.40;8.43;;;;;;;1.42;85.32;101778.66;5022718;27;20182;-70
2022/03/16 04:34:39;;;;;;;9.88;8.88;;;;;;;1.42;85.17;101781.28;5025884;27;20028;-70
2022/03/16 04:37:04;;;;;;;9.77;8.88;;;;;;;1.44;85.77;101765.56;5005889;28;20033;-70
2022/03/16 04:39:30;;;;;;;9.15;8.35;;;;;;;1.62;85.09;101770.16;4986482;28;20120;-70
2022/03/16 04:41:55;;;;;;;10.32;8.93;;;;;;;1.64;84.54;101773.56;5012856;28;20017;-72
2022/03/16 04:44:21;;;;;;;9.90;8.93;;;;;;;1.55;85.01;101773.88;5025396;28;20021;-71
2022/03/16 04:46:46;;;;;;;10.18;9.18;;;;;;;1.57;85.24;101772.06;5058210;27;20005;-71
2022/03/16 04:49:11;;;;;;;9.48;8.57;;;;;;;1.50;85.19;101771.44;5067534;27;20143;-70
2022/03/16 04:51:37;;;;;;;10.48;9.48;;;;;;;1.64;84.82;101768.34;5007683;28;21067;-70
2022/03/16 04:54:03;;;;;;;9.10;8.30;;;;;;;1.58;84.25;101773.78;4977955;28;20785;-70
2022/03/16 04:56:29;;;;;;;9.48;8.68;;;;;;;1.61;83.67;101776.28;4992076;28;20071;-70
2022/03/16 04:58:54;;;;;;;9.32;8.43;;;;;;;1.41;84.60;101773.50;4993352;27;20021;-70
2022/03/16 05:01:20;;;;;;;9.50;8.57;;;;;;;1.32;84.54;101782.50;4991016;28;20385;-71
2022/03/16 05:03:45;;;;;;;9.30;8.40;;;;;;;1.24;84.63;101779.28;5008991;28;20907;-70
2022/03/16 05:06:11;;;;;;;9.60;8.70;;;;;;;1.32;84.75;101772.91;4965493;27;20020;-71
2022/03/16 05:08:37;;;;;;;9.70;8.80;;;;;;;1.22;84.50;101775.88;4958358;28;20006;-71
2022/03/16 05:11:03;;;;;;;9.40;8.40;;;;;;;1.18;84.85;101775.13;4983297;27;20009;-71
2022/03/16 05:13:29;;;;;;;9.73;8.75;;;;;;;1.19;84.99;101772.47;4973020;28;20048;-71
2022/03/16 05:15:54;;;;;;;9.40;8.38;;;;;;;1.21;85.09;101775.03;4986371;28;20958;-71
2022/03/16 05:18:19;;;;;;;9.75;8.75;;;;;;;1.19;84.49;101775.06;4987113;28;20603;-71
2022/03/16 05:20:45;;;;;;;9.10;8.30;;;;;;;1.12;84.76;101780.56;4990115;28;20688;-70
2022/03/16 05:23:10;;;;;;;10.25;8.38;;;;;;;1.12;85.11;101770.13;4976953;28;20017;-71
2022/03/16 05:25:36;;;;;;;9.60;8.27;;;;;;;1.14;84.77;101778.72;4991980;28;20805;-72
2022/03/16 05:28:01;;;;;;;8.85;7.95;;;;;;;1.07;84.88;101765.03;4975512;27;20018;-71
2022/03/16 05:30:27;;;;;;;9.75;8.63;;;;;;;1.17;84.64;101773.41;4985220;28;20221;-73
2022/03/16 05:32:54;;;;;;;9.95;8.43;;;;;;;1.14;84.57;101768.31;5013564;28;20028;-70
2022/03/16 05:35:19;;;;;;;9.23;8.43;;;;;;;1.14;84.54;101770.91;4964393;28;20279;-70
2022/03/16 05:37:45;;;;;;;9.82;8.93;;;;;;;1.15;84.63;101772.63;4985323;28;20149;-72
2022/03/16 05:40:10;;;;;;;10.10;9.15;;;;;;;1.14;84.81;101777.00;4979164;28;20448;-70
2022/03/16 05:42:36;;;;;;;11.20;10.10;;;;;;;1.17;85.05;101784.72;4965034;28;20022;-70
2022/03/16 05:45:01;;;;;;;15.15;11.55;;;;;;;1.19;84.89;101788.09;4986866;27;20036;-71
2022/03/16 05:47:27;;;;;;;13.43;11.48;;;;;;;1.14;85.87;101789.16;4982908;27;20052;-72
2022/03/16 05:49:55;;;;;;;16.08;11.35;;;;;;;1.21;85.20;101790.66;4988399;28;20960;-71
2022/03/16 05:52:21;;;;;;;11.93;10.65;;;;;;;1.22;84.98;101788.94;5001626;27;20020;-71
2022/03/16 05:54:53;;;;;;;10.65;9.45;;;;;;;1.22;85.06;101797.59;5013770;27;20025;-74
2022/03/16 05:57:19;;;;;;;12.43;9.38;;;;;;;1.16;84.89;101795.19;5014019;28;20188;-72
2022/03/16 05:59:45;;;;;;;10.95;9.85;;;;;;;1.24;84.99;101797.53;4995166;28;20013;-72
2022/03/16 06:02:11;;;;;;;12.82;11.52;;;;;;;1.22;84.80;101801.97;4996756;27;20005;-72
2022/03/16 06:04:36;;;;;;;12.43;11.13;;;;;;;1.20;84.92;101799.41;4962841;27;20021;-71
2022/03/16 06:07:03;;;;;;;16.70;10.27;;;;;;;1.27;85.07;101800.91;5023760;27;20006;-74
2022/03/16 06:09:28;;;;;;;11.32;9.52;;;;;;;1.33;84.89;101810.28;4997144;28;20294;-71
2022/03/16 06:11:54;;;;;;;10.60;9.50;;;;;;;1.35;85.13;101808.47;5007624;27;20017;-72
2022/03/16 06:14:19;;;;;;;10.68;9.68;;;;;;;1.41;85.32;101797.84;4993897;27;20018;-71
2022/03/16 06:16:47;;;;;;;9.85;8.90;;;;;;;1.40;85.51;101801.34;5000814;28;20992;-71
2022/03/16 06:19:12;;;;;;;12.93;9.65;;;;;;;1.59;85.52;101796.34;5003487;27;20024;-72
2022/03/16 06:21:37;;;;;;;12.00;9.80;;;;;;;1.54;85.52;101793.06;4994834;27;20905;-73
2022/03/16 06:24:03;;;;;;;9.70;8.70;;;;;;;1.64;85.23;101794.44;5011075;28;20025;-72
2022/03/16 06:26:28;;;;;;;10.00;9.10;;;;;;;1.64;85.25;101797.03;5014779;28;20334;-73
2022/03/16 06:28:54;;;;;;;10.32;9.32;;;;;;;1.73;85.46;101795.88;4994364;27;20033;-73
2022/03/16 06:31:19;;;;;;;10.35;9.30;;;;;;;1.79;85.67;101793.06;5034071;27;20029;-72
2022/03/16 06:33:44;;;;;;;10.75;9.73;;;;;;;1.91;85.60;101793.53;5036256;27;20017;-70
2022/03/16 06:36:10;;;;;;;10.85;9.70;;;;;;;1.95;86.36;101803.81;5033615;27;20044;-72
2022/03/16 06:38:35;;;;;;;11.57;9.82;;;;;;;2.11;86.60;101792.81;5037563;27;20454;-72
2022/03/16 06:41:01;;;;;;;11.65;10.07;;;;;;;2.27;87.09;101801.78;5031941;27;20025;-72
2022/03/16 06:43:26;;;;;;;12.60;10.57;;;;;;;2.36;87.05;101806.66;5027400;27;20956;-73
2022/03/16 06:45:51;;;;;;;12.18;10.98;;;;;;;2.50;87.96;101803.53;4998723;27;20664;-71
2022/03/16 06:48:21;;;;;;;13.68;11.15;;;;;;;2.63;88.31;101798.66;5034332;27;20005;-72
2022/03/16 06:50:46;;;;;;;12.55;11.25;;;;;;;2.89;88.31;101808.13;5033254;27;20358;-73
2022/03/16 06:53:12;;;;;;;12.73;11.43;;;;;;;3.02;88.38;101800.63;5024777;27;20752;-71
2022/03/16 06:55:37;;;;;;;16.40;11.48;;;;;;;3.16;88.21;101804.44;5035565;27;20043;-73
2022/03/16 06:58:03;;;;;;;12.98;11.63;;;;;;;3.33;87.98;101811.59;5023525;27;20982;-73
2022/03/16 07:00:28;;;;;;;15.23;12.23;;;;;;;3.43;87.65;101807.69;5032339;27;20023;-73
2022/03/16 07:02:57;;;;;;;13.13;11.30;;;;;;;3.53;87.85;101818.63;5036593;27;20264;-73
2022/03/16 07:05:29;;;;;;;13.60;11.93;;;;;;;3.61;87.53;101806.91;5021767;27;20017;-73
2022/03/16 07:07:57;;;;;;;11.60;10.50;;;;;;;3.74;86.90;101814.25;5037824;27;20138;-72
2022/03/16 07:10:23;;;;;;;14.43;10.95;;;;;;;3.82;86.88;101806.03;5017276;27;20431;-73
2022/03/16 07:12:48;;;;;;;13.18;10.90;;;;;;;3.94;86.99;101813.38;5035040;27;20024;-74
2022/03/16 07:15:14;;;;;;;11.57;10.35;;;;;;;4.01;86.63;101806.94;5013435;27;20039;-72
2022/03/16 07:17:39;;;;;;;13.23;10.95;;;;;;;4.04;85.81;101798.94;5017662;27;20477;-72
2022/03/16 07:20:06;;;;;;;12.85;11.25;;;;;;;4.19;86.00;101805.28;5038400;27;20055;-72
2022/03/16 07:22:32;;;;;;;14.20;10.90;;;;;;;4.30;85.97;101795.16;5038017;27;20073;-71
2022/03/16 07:24:58;;;;;;;12.60;11.30;;;;;;;4.44;85.79;101789.28;5022649;27;20025;-72
2022/03/16 07:27:23;;;;;;;12.60;11.00;;;;;;;4.59;85.65;101782.44;5006801;27;20117;-71
2022/03/16 07:29:48;;;;;;;12.65;11.30;;;;;;;4.71;85.46;101781.03;5019299;27;20132;-73
2022/03/16 07:32:14;;;;;;;14.55;11.10;;;;;;;4.81;85.02;101774.44;5024069;27;20021;-72
2022/03/16 07:34:39;;;;;;;12.75;11.50;;;;;;;4.96;85.31;101777.22;5023206;27;20017;-72
2022/03/16 07:37:05;;;;;;;14.60;11.77;;;;;;;5.06;83.86;101782.88;5043860;27;20218;-74
2022/03/16 07:39:30;;;;;;;13.13;11.77;;;;;;;5.23;84.67;101779.41;5020251;27;20144;-73
2022/03/16 07:41:55;;;;;;;15.07;11.05;;;;;;;5.32;83.85;101781.59;5041077;27;20085;-73
2022/03/16 07:44:21;;;;;;;12.50;11.30;;;;;;;5.48;83.67;101777.25;4998211;27;20843;-72
2022/03/16 07:46:46;;;;;;;12.32;11.13;;;;;;;5.64;82.49;101779.06;5042658;27;20036;-73
2022/03/16 07:49:11;;;;;;;13.25;11.50;;;;;;;5.80;81.88;101781.78;5045983;27;20001;-71
2022/03/16 07:51:37;;;;;;;11.98;10.77;;;;;;;5.90;80.50;101772.47;5044678;27;20021;-73
2022/03/16 07:54:02;;;;;;;11.85;10.57;;;;;;;6.07;80.52;101778.66;5039963;27;20402;-73
2022/03/16 07:56:28;;;;;;;13.95;10.85;;;;;;;6.25;79.66;101779.44;5070530;27;20043;-73
2022/03/16 07:58:54;;;;;;;11.57;10.43;;;;;;;6.37;78.97;101776.13;5061063;27;20466;-73
2022/03/16 08:01:19;;;;;;;12.25;10.75;;;;;;;6.56;79.30;101777.75;5015604;27;20327;-71
2022/03/16 08:03:45;;;;;;;11.90;10.70;;;;;;;6.63;77.22;101773.88;5035564;27;20020;-73
2022/03/16 08:06:10;;;;;;;11.82;10.45;;;;;;;6.80;77.01;101771.13;5032057;27;20636;-72
2022/03/16 08:08:39;;;;;;;11.10;10.10;;;;;;;6.95;76.09;101771.19;5041710;27;20043;-73
2022/03/16 08:11:07;;;;;;;11.02;9.93;;;;;;;7.10;75.13;101772.94;5034710;27;20021;-73
2022/03/16 08:13:37;;;;;;;10.70;9.70;;;;;;;7.20;74.06;101781.13;5033786;27;20104;-72
2022/03/16 08:16:03;;;;;;;11.20;10.20;;;;;;;7.37;75.93;101767.00;5031221;27;20044;-73
2022/03/16 08:18:29;;;;;;;10.50;9.60;;;;;;;7.52;73.04;101768.72;5034531;27;20113;-73
2022/03/16 08:20:54;;;;;;;10.98;9.95;;;;;;;7.52;71.82;101773.97;5032729;27;20089;-71
2022/03/16 08:23:19;;;;;;;11.20;10.10;;;;;;;7.64;72.71;101777.69;5032933;27;20124;-72
2022/03/16 08:25:45;;;;;;;10.60;9.60;;;;;;;7.82;72.93;101780.97;5035748;27;20313;-72
2022/03/16 08:28:10;;;;;;;10.40;9.40;;;;;;;7.92;71.37;101776.00;5033187;27;20037;-72
2022/03/16 08:30:36;;;;;;;10.88;9.88;;;;;;;8.02;71.45;101784.19;5016454;27;20290;-73
2022/03/16 08:33:01;;;;;;;10.27;9.43;;;;;;;8.06;69.76;101772.50;5031134;27;20017;-73
2022/03/16 08:35:27;;;;;;;10.50;9.60;;;;;;;8.28;70.22;101761.47;5014530;27;20101;-73
2022/03/16 08:37:53;;;;;;;10.60;9.60;;;;;;;8.32;69.51;101759.47;4998917;27;20025;-72
2022/03/16 08:40:19;;;;;;;10.80;9.90;;;;;;;8.46;69.02;101758.63;5023975;27;20124;-73
2022/03/16 08:42:44;;;;;;;11.23;10.23;;;;;;;8.53;69.22;101762.56;5017120;27;21138;-72
2022/03/16 08:45:10;;;;;;;10.50;9.60;;;;;;;8.63;68.37;101760.19;5030665;27;20103;-73
2022/03/16 08:47:36;;;;;;;10.82;9.82;;;;;;;8.80;67.60;101762.59;5033499;27;20416;-73
2022/03/16 08:50:01;;;;;;;11.05;10.00;;;;;;;8.80;67.28;101762.59;5014056;27;20650;-71
2022/03/16 08:52:26;;;;;;;10.07;9.18;;;;;;;8.89;66.60;101767.25;5032558;27;20013;-72
2022/03/16 08:54:52;;;;;;;9.25;8.45;;;;;;;8.98;67.07;101770.25;5032550;27;20460;-72
2022/03/16 08:57:17;;;;;;;10.60;9.13;;;;;;;9.04;66.49;101762.78;5037260;27;20024;-73
2022/03/16 08:59:43;;;;;;;11.10;9.05;;;;;;;8.88;65.55;101751.53;5033847;27;20353;-72
2022/03/16 09:02:09;;;;;;;10.07;9.18;;;;;;;8.89;65.41;101747.94;5031027;27;20160;-72
2022/03/16 09:04:34;;;;;;;10.10;9.10;;;;;;;8.98;66.02;101749.97;5039102;27;20624;-73
2022/03/16 09:07:02;;;;;;;9.20;8.40;;;;;;;9.11;66.35;101750.00;4990961;28;20706;-72
2022/03/16 09:09:27;;;;;;;9.73;8.90;;;;;;;9.28;65.91;101749.72;4986457;27;20418;-72
2022/03/16 09:11:52;;;;;;;9.45;8.45;;;;;;;9.40;64.79;101747.19;5034242;27;20009;-72
2022/03/16 09:14:18;;;;;;;8.70;8.00;;;;;;;9.58;64.48;101755.66;5032318;27;20125;-72
2022/03/16 09:16:47;;;;;;;9.05;8.15;;;;;;;9.73;64.15;101751.97;5032839;27;20025;-73
2022/03/16 09:19:21;;;;;;;9.23;8.43;;;;;;;9.86;62.04;101761.69;5030914;27;20896;-74
2022/03/16 09:21:47;;;;;;;;;;;;;;;10.30;62.97;101755.88;5031949;27;20294;-73
2022/03/16 09:24:13;;;;;;;8.25;7.55;;;;;;;10.43;60.90;101761.16;5031288;27;19907;-71
2022/03/16 09:26:39;;;;;;;8.55;7.82;;;;;;;10.52;60.88;101762.31;5031100;27;20024;-73
2022/03/16 09:29:05;;;;;;;8.65;7.95;;;;;;;10.74;59.78;101764.22;5031803;28;20072;-73
2022/03/16 09:31:31;;;;;;;8.30;7.60;;;;;;;11.05;58.87;101766.41;5010839;28;20025;-71
2022/03/16 09:33:56;;;;;;;8.80;8.10;;;;;;;11.09;59.28;101752.81;5034264;27;20016;-73
2022/03/16 09:36:21;;;;;;;8.18;7.53;;;;;;;11.26;57.21;101764.78;5013938;28;20037;-72
2022/03/16 09:38:47;;;;;;;8.32;7.50;;;;;;;11.61;57.29;101758.59;5037634;27;20020;-73
2022/03/16 09:41:12;;;;;;;7.95;7.28;;;;;;;11.51;56.62;101766.41;5027468;27;20172;-72
2022/03/16 09:43:38;;;;;;;7.55;7.03;;;;;;;11.74;56.22;101765.63;5033733;28;20038;-72
2022/03/16 09:46:11;;;;;;;7.47;6.88;;;;;;;12.00;55.81;101771.53;5014082;28;20257;-72
2022/03/16 09:48:40;;;;;;;7.25;6.75;;;;;;;11.71;55.52;101779.13;5033500;28;20021;-72
2022/03/16 09:51:07;;;;;;;8.15;7.35;;;;;;;12.12;54.80;101775.06;5017096;28;20866;-72
2022/03/16 09:53:32;;;;;;;7.35;6.80;;;;;;;12.66;53.54;101766.28;5026132;28;20442;-73
2022/03/16 09:55:58;;;;;;;7.93;7.22;;;;;;;12.35;53.76;101763.47;5018479;28;20033;-73
2022/03/16 09:58:23;;;;;;;7.55;6.70;;;;;;;12.59;52.57;101759.75;5040242;27;20451;-71
2022/03/16 10:00:49;;;;;;;7.05;6.55;;;;;;;12.56;52.95;101765.31;5029914;27;20080;-72
2022/03/16 10:03:15;;;;;;;7.03;6.43;;;;;;;12.36;53.46;101754.50;5033072;28;20016;-72
2022/03/16 10:05:41;;;;;;;6.35;5.95;;;;;;;12.32;52.86;101758.41;5000477;28;20056;-72
2022/03/16 10:08:08;;;;;;;7.28;6.68;;;;;;;12.52;52.19;101769.19;5001058;28;20013;-73
2022/03/16 10:13:21;;;;;;;7.18;6.68;;;;;;;13.55;49.71;101762.50;5034872;28;21001;-72
2022/03/16 10:15:46;;;;;;;6.93;6.38;;;;;;;13.50;50.48;101756.75;5036062;27;20236;-72
2022/03/16 10:18:14;;;;;;;6.72;6.22;;;;;;;13.71;49.93;101757.53;5034681;28;20188;-71
2022/03/16 10:20:40;;;;;;;6.82;6.32;;;;;;;13.76;48.97;101754.47;5015921;28;20212;-72
2022/03/16 10:23:20;;;;;;;6.43;6.03;;;;;;;13.66;48.55;101749.09;5000678;28;20063;-73
2022/03/16 10:25:53;;;;;;;6.70;6.30;;;;;;;14.00;48.18;101746.19;5020435;28;20021;-71
2022/03/16 10:28:20;;;;;;;7.15;6.65;;;;;;;14.37;47.85;101745.59;5033715;27;20462;-72
2022/03/16 10:30:58;;;;;;;6.38;5.97;;;;;;;14.63;46.58;101746.94;5028995;27;20035;-72
2022/03/16 10:33:36;;;;;;;6.90;6.30;;;;;;;14.61;47.03;101728.41;5038768;27;20116;-73
2022/03/16 10:36:09;;;;;;;6.20;5.80;;;;;;;14.62;46.63;101739.88;5041991;27;20130;-72
2022/03/16 10:38:58;;;;;;;6.97;6.47;;;;;;;15.09;45.74;101730.22;5045923;27;20112;-73
2022/03/16 10:47:00;;;;;;;5.95;5.45;;;;;;;15.43;44.73;101734.25;5049097;27;20248;-73
2022/03/16 10:49:30;;;;;;;5.60;5.20;;;;;;;16.20;43.48;101742.09;5021883;28;20737;-73
2022/03/16 10:52:05;;;;;;;6.15;5.10;;;;;;;15.61;43.66;101727.16;5042002;27;20017;-72
2022/03/16 10:54:31;;;;;;;5.40;5.00;;;;;;;16.58;42.10;101732.16;5047819;27;20025;-73
2022/03/16 10:56:57;;;;;;;5.50;5.05;;;;;;;16.95;41.66;101733.84;5047889;27;20078;-73
2022/03/16 10:59:26;;;;;;;5.15;4.85;;;;;;;17.28;41.08;101724.22;5029398;27;20383;-73
2022/03/16 11:01:52;;;;;;;5.13;4.82;;;;;;;17.40;40.30;101714.13;5055337;27;20514;-73
2022/03/16 11:04:22;;;;;;;5.15;4.82;;;;;;;16.83;40.07;101723.34;5051262;27;20072;-74
2022/03/16 11:06:48;;;;;;;4.78;4.57;;;;;;;17.07;40.37;101719.22;5066920;27;20020;-72
2022/03/16 11:09:15;;;;;;;5.28;4.90;;;;;;;17.61;39.92;101721.78;5032457;27;20017;-73
2022/03/16 11:14:25;;;;;;;5.45;5.05;;;;;;;17.37;39.79;101709.06;5020250;27;20105;-72
2022/03/16 11:16:50;;;;;;;4.72;4.53;;;;;;;18.05;38.92;101704.75;5019852;27;20492;-73
2022/03/16 11:19:16;;;;;;;4.65;4.45;;;;;;;18.23;38.68;101699.25;5018273;27;20090;-73
2022/03/16 11:22:09;;;;;;;5.78;5.32;;;;;;;18.05;38.52;101695.84;5035713;27;20413;-74
2022/03/16 11:24:38;;;;;;;4.22;4.03;;;;;;;18.17;38.76;101700.75;5033748;27;20020;-73
2022/03/16 11:27:25;;;;;;;4.70;4.50;;;;;;;18.00;38.82;101697.19;5039747;27;20024;-72
2022/03/16 11:30:08;;;;;;;4.72;4.38;;;;;;;18.55;36.84;101686.91;5042288;27;20826;-74